Etusivu
METAR-TAF:

METAR-TAF

Lentoasemat :

In Aménas, Algeria

Leveyspiiri: 28-03N, Pituuspiiri: 009-38E, korkeus merenpinnasta: 562 m

Tämänhetkinen sää

Tämä raportti tehtiin 1 tunti ja 15 minuuttia sitten, kello 21.00 UTC
Tuuli 3 kn koillisesta
Lämpötila 16°C
Kosteus 20%
Ilmanpaine 1022 hPa
Näkyvyys 10 km tai enemmän
ei pilviä alle 1500 m:ssä eikä cumulonimbus-pilviä

METAR: DAUZ 282100Z 05003KT CAVOK 16/M07 Q1022

Aika: 23:15 (22:15 UTC)

Sääennuste

Tämä raportti tehtiin 5 tuntia ja 15 minuuttia sitten, kello 17.00 UTC
Ennuste voimassa 28. päivästä klo 18 UTC - 29. päivään klo 18 UTC
Tuuli 5 kn pohjoisesta
Näkyvyys 10 km tai enemmän
ei pilviä alle 1500 m:ssä eikä cumulonimbus-pilviä
Tulossa
29. päivästä klo 09 UTC - 29. päivään klo 12 UTC
Tuuli 12 kn idästä/kaakosta

TAF: DAUZ 281700Z 2818/2918 01005KT CAVOK BECMG 2909/2912 12012KT

Säähavainnot ja -ennusteet yli 4000 lentoasemalta (METAR- ja TAF-raportit).

Käytössä olevat sääasemat on merkitty karttaan keltaisilla ja punaisilla pisteillä.

Aseta hiiri pisteen päälle nähdäksesi sääaseman nimen.

Klikkaa sitten nähdäksesi säähavainnot ja -ennusteet.

Kartan vaihtaminen: klikkaa mustalla rastilla varustettuja vihreitä pisteitä, niin voit zoomata sisään; viivalla varustettua vihreää pistettä, niin voit zoomata ulos tai vihreitä nuolia, niin pääset viereisille kartoille.


METAR-TAF: